Tara Dawn — WDC4097 — position and weather

sailwx.info

Track history (hours):
 
Tides and Currents Weather Stations Pressure Air Temp Water Temp Dewpoint Dewpoint Depression Visibility Wind Speed Wind Dir Waves Ship Positions

Tara Dawn

Owner: F/V TARA DAWN INC., Fort Bragg,, CA. More information available from US FCC via Universal Licensing System and Coast Guard Vessel Documentation Center.

Last reported at 2018-May-29 19:14 UTC. Time now 2018-Jun-22 01:23 UTC.
Position N 54°04' W 131°14'.
Warning: this ship's position is 23 days out of date.

Length 20 m.

Type: Fishing. MMSI: 367019070.

Date/timePositionNaut miles runAvg speedWind from/ knotsBaromVisibWave heightAir tempDewpointWater temp
2018-May-29 19:14N 54°04' W 131°14'2 8.5
2018-May-29 18:57N 54°02' W 131°12'14 8.9
2018-May-29 17:25N 53°50' W 131°01'7 8.7
2018-May-29 16:36N 53°43' W 130°56'165 8.6
2018-May-28 21:20N 51°16' W 128°54'3 9.2
2018-May-28 20:59N 51°13' W 128°53'5 8.9
2018-May-28 20:28N 51°09' W 128°49'34 8.6
2018-May-28 16:33N 50°39' W 128°24'267 8.4
2018-May-27 08:54N 46°42' W 125°18'4 8.8
2018-May-27 08:25N 46°38' W 125°15'5 8.9
2018-May-27 07:54N 46°34' W 125°12'7 9.1
2018-May-27 07:11N 46°28' W 125°08'2 8.9
2018-May-27 06:58N 46°26' W 125°07'4 9.2
2018-May-27 06:30N 46°22' W 125°04'5 9.2
2018-May-27 06:00N 46°18' W 125°01'4 9.0
2018-May-27 05:30N 46°15' W 124°58'4 8.5
2018-May-27 05:00N 46°11' W 124°55'4 8.4
2018-May-27 04:30N 46°07' W 124°53'5 8.4
2018-May-27 03:55N 46°02' W 124°49'4 8.5
2018-May-27 03:30N 45°59' W 124°47'4 8.4
2018-May-27 02:58N 45°55' W 124°44'4 8.1
2018-May-27 02:30N 45°52' W 124°42'4 8.3
2018-May-27 02:00N 45°48' W 124°39'4 8.4
2018-May-27 01:30N 45°45' W 124°36'4 8.4
2018-May-27 01:00N 45°41' W 124°33'5 8.3
2018-May-27 00:24N 45°36' W 124°31'3 8.1
2018-May-27 00:00N 45°33' W 124°29'4 7.9
2018-May-26 23:30N 45°30' W 124°26'4 7.7
2018-May-26 23:00N 45°27' W 124°23'4 7.9
2018-May-26 22:29N 45°23' W 124°20'4 8.0
2018-May-26 22:00N 45°20' W 124°17'4 8.3
2018-May-26 21:30N 45°16' W 124°16'  
Track history (hours):
 
Tides and Currents Weather Stations Pressure Air Temp Water Temp Dewpoint Dewpoint Depression Visibility Wind Speed Wind Dir Waves Ship Positions

Tara Dawn

Owner: F/V TARA DAWN INC., Fort Bragg,, CA. More information available from US FCC via Universal Licensing System and Coast Guard Vessel Documentation Center.

Last reported at 2018-May-29 19:14 UTC. Time now 2018-Jun-22 01:23 UTC.
Position N 54°04' W 131°14'.
Warning: this ship's position is 23 days out of date.

Length 20 m.

Type: Fishing. MMSI: 367019070.

Date/timePositionNaut miles runAvg speedWind from/ knotsBaromVisibWave heightAir tempDewpointWater temp
2018-May-29 19:14N 54°04' W 131°14'2 8.5
2018-May-29 18:57N 54°02' W 131°12'14 8.9
2018-May-29 17:25N 53°50' W 131°01'7 8.7
2018-May-29 16:36N 53°43' W 130°56'165 8.6
2018-May-28 21:20N 51°16' W 128°54'3 9.2
2018-May-28 20:59N 51°13' W 128°53'5 8.9
2018-May-28 20:28N 51°09' W 128°49'34 8.6
2018-May-28 16:33N 50°39' W 128°24'267 8.4
2018-May-27 08:54N 46°42' W 125°18'4 8.8
2018-May-27 08:25N 46°38' W 125°15'5 8.9
2018-May-27 07:54N 46°34' W 125°12'7 9.1
2018-May-27 07:11N 46°28' W 125°08'2 8.9
2018-May-27 06:58N 46°26' W 125°07'4 9.2
2018-May-27 06:30N 46°22' W 125°04'5 9.2
2018-May-27 06:00N 46°18' W 125°01'4 9.0
2018-May-27 05:30N 46°15' W 124°58'4 8.5
2018-May-27 05:00N 46°11' W 124°55'4 8.4
2018-May-27 04:30N 46°07' W 124°53'5 8.4
2018-May-27 03:55N 46°02' W 124°49'4 8.5
2018-May-27 03:30N 45°59' W 124°47'4 8.4
2018-May-27 02:58N 45°55' W 124°44'4 8.1
2018-May-27 02:30N 45°52' W 124°42'4 8.3
2018-May-27 02:00N 45°48' W 124°39'4 8.4
2018-May-27 01:30N 45°45' W 124°36'4 8.4
2018-May-27 01:00N 45°41' W 124°33'5 8.3
2018-May-27 00:24N 45°36' W 124°31'3 8.1
2018-May-27 00:00N 45°33' W 124°29'4 7.9
2018-May-26 23:30N 45°30' W 124°26'4 7.7
2018-May-26 23:00N 45°27' W 124°23'4 7.9
2018-May-26 22:29N 45°23' W 124°20'4 8.0
2018-May-26 22:00N 45°20' W 124°17'4 8.3
2018-May-26 21:30N 45°16' W 124°16'  

Dump ship's entire track history